createdAt,value
2023-08-24T00:00:56.417Z,25.14
2023-08-24T00:02:28.482Z,25.11
2023-08-24T00:04:00.359Z,25.04
2023-08-24T00:05:36.183Z,25.02
2023-08-24T00:07:08.741Z,24.98
2023-08-24T00:08:40.476Z,24.93
2023-08-24T00:10:12.077Z,24.90
2023-08-24T00:11:43.824Z,24.85
2023-08-24T00:13:15.656Z,24.83
2023-08-24T00:14:47.261Z,24.85
2023-08-24T00:16:19.497Z,24.83
2023-08-24T00:17:51.488Z,24.87
2023-08-24T00:19:23.286Z,24.89
2023-08-24T00:20:54.966Z,24.84
2023-08-24T00:22:27.072Z,24.78
2023-08-24T00:23:59.221Z,24.77
2023-08-24T00:25:31.123Z,24.75
2023-08-24T00:27:02.818Z,24.75
2023-08-24T00:28:34.366Z,24.74
2023-08-24T00:30:07.692Z,24.77
2023-08-24T00:31:39.293Z,24.79
2023-08-24T00:33:11.525Z,24.80
2023-08-24T00:34:43.258Z,24.78
2023-08-24T00:36:14.934Z,24.72
2023-08-24T00:37:46.577Z,24.69
2023-08-24T00:39:18.221Z,24.69
2023-08-24T00:40:50.310Z,24.65
2023-08-24T00:42:23.804Z,24.59
2023-08-24T00:43:55.364Z,24.54
2023-08-24T00:45:27.006Z,24.50
2023-08-24T00:46:59.697Z,24.44
2023-08-24T00:48:31.342Z,24.41
2023-08-24T00:50:02.986Z,24.38
2023-08-24T00:51:34.698Z,24.33
2023-08-24T00:53:06.450Z,24.29
2023-08-24T00:54:38.052Z,24.28
2023-08-24T00:56:09.738Z,24.24
2023-08-24T00:57:42.138Z,24.20
2023-08-24T00:59:13.785Z,24.13
2023-08-24T01:00:45.485Z,24.07
2023-08-24T01:02:17.243Z,24.02
2023-08-24T01:03:49.125Z,24.00
2023-08-24T01:05:20.690Z,23.99
2023-08-24T01:06:53.626Z,23.96
2023-08-24T01:08:25.235Z,23.94
2023-08-24T01:09:56.864Z,23.89
2023-08-24T01:11:28.594Z,23.83
2023-08-24T01:13:03.829Z,23.78
2023-08-24T01:14:42.240Z,23.77
2023-08-24T01:16:30.298Z,23.78
2023-08-24T01:18:02.608Z,23.71
2023-08-24T01:19:44.399Z,23.64
2023-08-24T01:21:16.278Z,23.58
2023-08-24T01:22:57.780Z,23.53
2023-08-24T01:24:33.563Z,23.48
2023-08-24T01:26:05.191Z,23.48
2023-08-24T01:27:36.971Z,23.48
2023-08-24T01:29:08.505Z,23.48
2023-08-24T01:30:40.098Z,23.46
2023-08-24T01:32:13.046Z,23.43
2023-08-24T01:33:45.519Z,23.39
2023-08-24T01:35:17.203Z,23.40
2023-08-24T01:36:48.896Z,23.45
2023-08-24T01:38:20.537Z,23.55
2023-08-24T01:39:55.335Z,23.56
2023-08-24T01:41:27.921Z,23.58
2023-08-24T01:43:00.685Z,23.51
2023-08-24T01:44:33.577Z,23.39
2023-08-24T01:46:06.241Z,23.31
2023-08-24T01:47:38.087Z,23.24
2023-08-24T01:49:09.683Z,23.18
2023-08-24T01:50:41.442Z,23.15
2023-08-24T01:52:12.980Z,23.16
2023-08-24T01:53:44.692Z,23.17
2023-08-24T01:55:19.166Z,23.18
2023-08-24T01:56:51.296Z,23.21
2023-08-24T01:58:23.451Z,23.17
2023-08-24T01:59:56.209Z,23.17
2023-08-24T02:01:27.903Z,23.16
2023-08-24T02:02:59.573Z,23.13
2023-08-24T02:04:31.421Z,23.12
2023-08-24T02:06:03.370Z,23.11
2023-08-24T02:07:35.389Z,23.13
2023-08-24T02:09:06.927Z,23.11
2023-08-24T02:10:38.609Z,23.10
2023-08-24T02:12:10.736Z,23.17
2023-08-24T02:13:42.430Z,23.13
2023-08-24T02:15:14.370Z,23.14
2023-08-24T02:16:46.952Z,23.13
2023-08-24T02:18:18.509Z,23.08
2023-08-24T02:19:50.275Z,23.06
2023-08-24T02:21:21.821Z,23.03
2023-08-24T02:22:53.568Z,22.96
2023-08-24T02:24:25.310Z,22.86
2023-08-24T02:25:57.582Z,22.85
2023-08-24T02:27:29.482Z,22.83
2023-08-24T02:29:01.061Z,22.84
2023-08-24T02:30:32.581Z,22.83
2023-08-24T02:32:04.255Z,22.81
2023-08-24T02:33:35.986Z,22.76
2023-08-24T02:35:07.994Z,22.74
2023-08-24T02:36:40.158Z,22.75
2023-08-24T02:38:12.142Z,22.72
2023-08-24T02:39:43.829Z,22.70
2023-08-24T02:41:16.093Z,22.71
2023-08-24T02:42:47.817Z,22.71
2023-08-24T02:44:19.369Z,22.72
2023-08-24T02:45:51.059Z,22.71
2023-08-24T02:47:22.744Z,22.72
2023-08-24T02:48:54.837Z,22.71
2023-08-24T02:50:26.397Z,22.71
2023-08-24T02:51:57.941Z,22.70
2023-08-24T02:53:30.029Z,22.67
2023-08-24T02:55:01.698Z,22.63
2023-08-24T02:56:33.788Z,22.60
2023-08-24T02:58:05.396Z,22.57
2023-08-24T02:59:37.144Z,22.54
2023-08-24T03:01:08.990Z,22.48
2023-08-24T03:02:40.991Z,22.50
2023-08-24T03:04:12.802Z,22.51
2023-08-24T03:05:57.582Z,22.50
2023-08-24T03:07:29.844Z,22.50
2023-08-24T03:09:01.545Z,22.52
2023-08-24T03:10:36.087Z,22.52
2023-08-24T03:12:08.264Z,22.53
2023-08-24T03:13:40.109Z,22.49
2023-08-24T03:15:11.764Z,22.41
2023-08-24T03:16:43.328Z,22.38
2023-08-24T03:18:15.233Z,22.37
2023-08-24T03:19:46.838Z,22.36
2023-08-24T03:21:18.484Z,22.36
2023-08-24T03:22:50.062Z,22.40
2023-08-24T03:24:21.649Z,22.36
2023-08-24T03:25:53.409Z,22.36
2023-08-24T03:27:25.036Z,22.33
2023-08-24T03:28:56.632Z,22.31
2023-08-24T03:30:28.249Z,22.27
2023-08-24T03:31:59.832Z,22.23
2023-08-24T03:33:32.122Z,22.21
2023-08-24T03:35:04.705Z,22.23
2023-08-24T03:36:36.312Z,22.25
2023-08-24T03:38:08.340Z,22.28
2023-08-24T03:39:39.978Z,22.27
2023-08-24T03:41:11.567Z,22.26
2023-08-24T03:42:43.182Z,22.25
2023-08-24T03:44:14.701Z,22.24
2023-08-24T03:45:46.519Z,22.23
2023-08-24T03:47:19.772Z,22.23
2023-08-24T03:48:51.448Z,22.25
2023-08-24T03:50:23.722Z,22.25
2023-08-24T03:51:55.245Z,22.25
2023-08-24T03:53:26.963Z,22.22
2023-08-24T03:54:58.702Z,22.21
2023-08-24T03:56:30.369Z,22.22
2023-08-24T03:58:01.949Z,22.23
2023-08-24T03:59:33.633Z,22.26
2023-08-24T04:01:05.303Z,22.28
2023-08-24T04:02:37.115Z,22.29
2023-08-24T04:04:08.768Z,22.26
2023-08-24T04:05:41.323Z,22.25
2023-08-24T04:07:12.906Z,22.23
2023-08-24T04:08:44.683Z,22.20
2023-08-24T04:10:16.375Z,22.20
2023-08-24T04:11:48.301Z,22.16
2023-08-24T04:13:20.707Z,22.14
2023-08-24T04:14:53.752Z,22.07
2023-08-24T04:16:25.729Z,22.04
2023-08-24T04:17:58.263Z,22.01
2023-08-24T04:19:29.919Z,21.97
2023-08-24T04:21:01.760Z,21.94
2023-08-24T04:22:33.553Z,21.95
2023-08-24T04:24:05.884Z,21.96
2023-08-24T04:25:40.896Z,21.95
2023-08-24T04:27:13.243Z,21.95
2023-08-24T04:28:44.924Z,21.92
2023-08-24T04:30:17.288Z,21.92
2023-08-24T04:31:48.924Z,21.93
2023-08-24T04:33:20.688Z,21.96
2023-08-24T04:34:52.478Z,21.96
2023-08-24T04:36:24.066Z,21.96
2023-08-24T04:37:57.757Z,22.00
2023-08-24T04:39:30.903Z,22.04
2023-08-24T04:41:02.504Z,22.02
2023-08-24T04:42:34.767Z,22.03
2023-08-24T04:44:08.817Z,22.06
2023-08-24T04:45:41.188Z,22.13
2023-08-24T04:47:13.119Z,22.18
2023-08-24T04:48:44.688Z,22.26
2023-08-24T04:50:16.465Z,22.34
2023-08-24T04:51:48.110Z,22.43
2023-08-24T04:53:20.292Z,22.49
2023-08-24T04:54:51.916Z,22.54
2023-08-24T04:56:23.673Z,22.63
2023-08-24T04:57:55.571Z,22.78
2023-08-24T04:59:27.391Z,22.89
2023-08-24T05:00:59.004Z,23.01
2023-08-24T05:02:30.725Z,23.12
2023-08-24T05:04:02.473Z,23.25
2023-08-24T05:05:34.304Z,23.33
2023-08-24T05:07:06.195Z,23.44
2023-08-24T05:08:37.734Z,23.52
2023-08-24T05:10:09.656Z,23.62
2023-08-24T05:11:41.246Z,23.66
2023-08-24T05:13:12.803Z,23.68
2023-08-24T05:14:44.394Z,23.73
2023-08-24T05:16:16.122Z,23.78
2023-08-24T05:17:48.242Z,23.88
2023-08-24T05:19:20.128Z,24.00
2023-08-24T05:20:51.927Z,24.11
2023-08-24T05:22:23.662Z,24.23
2023-08-24T05:23:55.266Z,24.38
2023-08-24T05:25:26.856Z,24.53
2023-08-24T05:26:58.394Z,24.64
2023-08-24T05:28:30.458Z,24.73
2023-08-24T05:30:02.170Z,24.72
2023-08-24T05:31:33.812Z,24.77
2023-08-24T05:33:05.491Z,24.75
2023-08-24T05:34:37.853Z,24.75
2023-08-24T05:36:09.515Z,24.80
2023-08-24T05:37:41.283Z,24.82
2023-08-24T05:39:12.919Z,24.83
2023-08-24T05:40:44.819Z,24.81
2023-08-24T05:42:16.447Z,24.83
2023-08-24T05:43:47.957Z,24.91
2023-08-24T05:45:20.172Z,24.95
2023-08-24T05:46:51.722Z,25.01
2023-08-24T05:48:23.520Z,25.06
2023-08-24T05:49:55.616Z,25.04
2023-08-24T05:51:27.389Z,25.03
2023-08-24T05:52:59.001Z,25.02
2023-08-24T05:54:30.917Z,25.07
2023-08-24T05:56:02.558Z,25.04
2023-08-24T05:57:34.145Z,25.03
2023-08-24T05:59:06.636Z,25.04
2023-08-24T06:00:38.398Z,25.03
2023-08-24T06:02:09.999Z,25.03
2023-08-24T06:03:41.948Z,25.02
2023-08-24T06:05:13.536Z,25.00
2023-08-24T06:06:45.117Z,24.98
2023-08-24T06:08:16.891Z,25.05
2023-08-24T06:09:49.219Z,25.07
2023-08-24T06:11:21.197Z,25.13
2023-08-24T06:12:53.269Z,25.18
2023-08-24T06:14:24.908Z,25.29
2023-08-24T06:15:56.578Z,25.35
2023-08-24T06:17:28.526Z,25.36
2023-08-24T06:19:00.174Z,25.33
2023-08-24T06:20:31.870Z,25.35
2023-08-24T06:22:03.646Z,25.44
2023-08-24T06:23:35.171Z,25.50
2023-08-24T06:25:10.084Z,25.57
2023-08-24T06:26:41.785Z,25.64
2023-08-24T06:28:13.755Z,25.68
2023-08-24T06:29:45.499Z,25.76
2023-08-24T06:31:17.634Z,25.81
2023-08-24T06:32:49.339Z,25.89
2023-08-24T06:34:21.070Z,25.97
2023-08-24T06:35:52.780Z,26.09
2023-08-24T06:37:24.513Z,26.13
2023-08-24T06:38:56.129Z,26.21
2023-08-24T06:40:27.750Z,26.32
2023-08-24T06:41:59.439Z,26.45
2023-08-24T06:43:31.041Z,26.45
2023-08-24T06:45:02.690Z,26.49
2023-08-24T06:46:35.143Z,26.49
2023-08-24T06:48:08.866Z,26.64
2023-08-24T06:49:40.448Z,26.76
2023-08-24T06:51:12.172Z,26.99
2023-08-24T06:52:43.754Z,27.22
2023-08-24T06:54:16.054Z,27.46
2023-08-24T06:55:47.996Z,27.70
2023-08-24T06:57:20.088Z,27.90
2023-08-24T06:58:51.693Z,28.13
2023-08-24T07:00:25.584Z,28.31
2023-08-24T07:01:58.506Z,28.44
2023-08-24T07:03:30.072Z,28.54
2023-08-24T07:05:02.255Z,28.66
2023-08-24T07:06:37.292Z,28.76
2023-08-24T07:08:09.449Z,28.86
2023-08-24T07:09:41.209Z,28.95
2023-08-24T07:11:15.221Z,29.11
2023-08-24T07:12:48.088Z,29.22
2023-08-24T07:14:19.896Z,29.35
2023-08-24T07:15:52.295Z,29.44
2023-08-24T07:17:24.009Z,29.53
2023-08-24T07:18:55.930Z,29.55
2023-08-24T07:20:27.469Z,29.53
2023-08-24T07:21:59.584Z,29.66
2023-08-24T07:23:31.248Z,29.59
2023-08-24T07:25:06.385Z,29.52
2023-08-24T07:26:38.733Z,29.56
2023-08-24T07:28:10.748Z,29.61
2023-08-24T07:29:42.726Z,29.71
2023-08-24T07:31:14.823Z,29.77
2023-08-24T07:32:47.217Z,29.89
2023-08-24T07:34:18.801Z,30.05
2023-08-24T07:35:50.880Z,30.12
2023-08-24T07:37:22.810Z,30.23
2023-08-24T07:38:54.394Z,30.30
2023-08-24T07:40:27.363Z,30.35
2023-08-24T07:41:58.967Z,30.36
2023-08-24T07:43:31.247Z,30.44
2023-08-24T07:45:02.912Z,30.49
2023-08-24T07:46:37.179Z,30.59
2023-08-24T07:48:09.111Z,30.67
2023-08-24T07:49:46.000Z,30.70
2023-08-24T07:51:17.926Z,30.78
2023-08-24T07:52:50.485Z,30.89
2023-08-24T07:54:22.186Z,30.79
2023-08-24T07:55:55.387Z,30.70
2023-08-24T07:57:30.468Z,30.52
2023-08-24T07:59:02.664Z,30.42
2023-08-24T08:00:34.438Z,30.38
2023-08-24T08:02:06.526Z,30.40
2023-08-24T08:03:38.227Z,30.54
2023-08-24T08:05:12.083Z,30.63
2023-08-24T08:06:43.759Z,30.70
2023-08-24T08:08:15.626Z,30.77
2023-08-24T08:09:47.357Z,30.92
2023-08-24T08:11:19.128Z,31.03
2023-08-24T08:12:50.835Z,31.17
2023-08-24T08:14:23.060Z,31.28
2023-08-24T08:15:55.045Z,31.35
2023-08-24T08:17:27.359Z,31.48
2023-08-24T08:18:59.385Z,31.47
2023-08-24T08:20:31.316Z,31.41
2023-08-24T08:22:10.341Z,31.42
2023-08-24T08:23:42.538Z,31.39
2023-08-24T08:25:14.180Z,31.32
2023-08-24T08:26:45.989Z,31.36
2023-08-24T08:28:19.108Z,31.44
2023-08-24T08:29:51.428Z,31.49
2023-08-24T08:31:23.120Z,31.48
2023-08-24T08:32:56.030Z,31.55
2023-08-24T08:34:27.661Z,31.61
2023-08-24T08:35:59.305Z,31.64
2023-08-24T08:37:33.708Z,31.62
2023-08-24T08:39:05.924Z,31.62
2023-08-24T08:40:37.894Z,31.59
2023-08-24T08:42:15.469Z,31.54
2023-08-24T08:43:47.165Z,31.58
2023-08-24T08:45:18.883Z,31.60
2023-08-24T08:46:50.483Z,31.59
2023-08-24T08:48:22.320Z,31.60
2023-08-24T08:49:54.492Z,31.62
2023-08-24T08:51:26.505Z,31.57
2023-08-24T08:53:00.003Z,31.57
2023-08-24T08:54:31.875Z,31.54
2023-08-24T08:56:06.061Z,31.57
2023-08-24T08:57:37.852Z,31.58
2023-08-24T08:59:10.660Z,31.58
2023-08-24T09:00:42.963Z,31.58
2023-08-24T09:02:14.686Z,31.54
2023-08-24T09:03:46.365Z,31.34
2023-08-24T09:05:17.965Z,31.20
2023-08-24T09:06:50.094Z,31.16
2023-08-24T09:08:21.613Z,31.07
2023-08-24T09:09:53.280Z,31.03
2023-08-24T09:11:25.222Z,31.01
2023-08-24T09:12:57.442Z,31.02
2023-08-24T09:14:29.032Z,31.02
2023-08-24T09:16:04.480Z,31.12
2023-08-24T09:17:36.239Z,31.27
2023-08-24T09:19:09.048Z,31.42
2023-08-24T09:20:40.765Z,31.52
2023-08-24T09:22:12.601Z,31.68
2023-08-24T09:23:46.180Z,31.93
2023-08-24T09:25:19.382Z,32.13
2023-08-24T09:26:51.011Z,32.27
2023-08-24T09:28:26.272Z,32.40
2023-08-24T09:29:57.930Z,32.37
2023-08-24T09:31:37.483Z,32.37
2023-08-24T09:33:11.963Z,32.40
2023-08-24T09:34:44.418Z,32.34
2023-08-24T09:36:16.220Z,32.18
2023-08-24T09:37:47.963Z,32.06
2023-08-24T09:39:20.720Z,32.00
2023-08-24T09:40:52.607Z,31.97
2023-08-24T09:42:27.788Z,31.98
2023-08-24T09:44:04.475Z,31.99
2023-08-24T09:45:36.121Z,31.94
2023-08-24T09:47:12.445Z,31.88
2023-08-24T09:48:44.069Z,31.85
2023-08-24T09:50:15.821Z,31.85
2023-08-24T09:51:47.537Z,31.82
2023-08-24T09:53:20.430Z,31.74
2023-08-24T09:54:52.028Z,31.74
2023-08-24T09:56:24.391Z,31.73
2023-08-24T09:57:56.483Z,31.70
2023-08-24T09:59:29.193Z,31.71
2023-08-24T10:01:02.496Z,31.71
2023-08-24T10:02:34.141Z,31.71
2023-08-24T10:04:06.498Z,31.75
2023-08-24T10:05:47.728Z,31.76
2023-08-24T10:07:25.808Z,31.75
2023-08-24T10:09:00.287Z,31.55
2023-08-24T10:10:32.005Z,31.38
2023-08-24T10:12:03.849Z,31.28
2023-08-24T10:13:48.364Z,31.20
2023-08-24T10:15:20.179Z,31.15
2023-08-24T10:16:52.115Z,31.12
2023-08-24T10:18:25.491Z,31.11
2023-08-24T10:19:57.243Z,31.11
2023-08-24T10:21:29.804Z,31.09
2023-08-24T10:23:04.089Z,31.10
2023-08-24T10:24:36.974Z,31.11
2023-08-24T10:26:09.324Z,31.23
2023-08-24T10:27:45.332Z,31.36
2023-08-24T10:29:20.377Z,31.51
2023-08-24T10:30:52.529Z,31.61
2023-08-24T10:32:25.179Z,31.79
2023-08-24T10:33:56.880Z,31.93
2023-08-24T10:35:29.012Z,32.11
2023-08-24T10:37:11.257Z,32.25
2023-08-24T10:38:45.663Z,32.46
2023-08-24T10:40:22.631Z,32.67
2023-08-24T10:41:54.874Z,32.92
2023-08-24T10:43:26.614Z,33.15
2023-08-24T10:44:59.785Z,33.34
2023-08-24T10:46:31.385Z,33.55
2023-08-24T10:48:03.288Z,33.74
2023-08-24T10:49:35.234Z,33.91
2023-08-24T10:51:17.893Z,33.91
2023-08-24T10:52:50.433Z,33.96
2023-08-24T10:57:00.093Z,34.29
2023-08-24T10:58:35.068Z,34.31
2023-08-24T11:00:07.281Z,34.42
2023-08-24T11:01:55.617Z,34.69
2023-08-24T11:03:34.274Z,34.79
2023-08-24T11:05:15.975Z,34.70
2023-08-24T11:07:06.686Z,34.72
2023-08-24T11:08:48.435Z,34.87
2023-08-24T11:10:20.513Z,34.90
2023-08-24T11:12:01.531Z,34.99
2023-08-24T11:13:33.310Z,35.03
2023-08-24T11:15:05.062Z,35.05
2023-08-24T11:16:55.225Z,35.12
2023-08-24T11:18:28.096Z,35.16
2023-08-24T11:20:00.001Z,35.20
2023-08-24T11:21:31.749Z,35.12
2023-08-24T11:23:03.368Z,34.98
2023-08-24T11:24:37.339Z,34.82
2023-08-24T11:26:09.006Z,34.68
2023-08-24T11:27:42.493Z,34.56
2023-08-24T11:29:14.402Z,34.51
2023-08-24T11:30:46.906Z,34.56
2023-08-24T11:32:20.278Z,34.63
2023-08-24T11:33:55.810Z,34.61
2023-08-24T11:35:27.717Z,34.47
2023-08-24T11:36:59.471Z,34.27
2023-08-24T11:38:39.634Z,34.18
2023-08-24T11:40:18.169Z,34.10
2023-08-24T11:42:00.083Z,34.02
2023-08-24T11:43:31.826Z,33.99
2023-08-24T11:45:03.572Z,33.95
2023-08-24T11:46:35.829Z,33.88
2023-08-24T11:48:08.004Z,33.80
2023-08-24T11:49:40.293Z,33.77
2023-08-24T11:51:16.181Z,33.73
2023-08-24T11:52:50.264Z,33.72
2023-08-24T11:54:22.825Z,33.74
2023-08-24T11:56:04.273Z,33.76
2023-08-24T11:57:41.122Z,33.73
2023-08-24T11:59:16.326Z,33.71
2023-08-24T12:00:48.567Z,33.66
2023-08-24T12:02:21.121Z,33.68
2023-08-24T12:03:52.968Z,33.69
2023-08-24T12:05:26.527Z,33.71
2023-08-24T12:06:59.409Z,33.65
2023-08-24T12:08:31.549Z,33.49
2023-08-24T12:10:06.538Z,33.41
2023-08-24T12:11:38.606Z,33.40
2023-08-24T12:13:13.076Z,33.41
2023-08-24T12:14:45.926Z,33.46
2023-08-24T12:16:18.664Z,33.51
2023-08-24T12:17:51.008Z,33.52
2023-08-24T12:19:24.067Z,33.60
2023-08-24T12:20:56.425Z,33.71
2023-08-24T12:22:29.359Z,33.76
2023-08-24T12:24:05.246Z,33.76
2023-08-24T12:25:37.911Z,33.75
2023-08-24T12:27:10.964Z,33.62
2023-08-24T12:28:43.192Z,33.50
2023-08-24T12:30:15.069Z,33.38
2023-08-24T12:31:47.267Z,33.31
2023-08-24T12:33:25.938Z,33.25
2023-08-24T12:34:58.760Z,33.17
2023-08-24T12:36:31.229Z,33.03
2023-08-24T12:38:03.548Z,32.90
2023-08-24T12:39:38.763Z,32.78
2023-08-24T12:41:10.909Z,32.69
2023-08-24T12:42:42.713Z,32.65
2023-08-24T12:44:15.785Z,32.60
2023-08-24T12:45:48.005Z,32.58
2023-08-24T12:47:19.895Z,32.61
2023-08-24T12:48:52.969Z,32.56
2023-08-24T12:50:26.137Z,32.54
2023-08-24T12:51:57.843Z,32.49
2023-08-24T12:53:30.789Z,32.47
2023-08-24T12:55:02.853Z,32.49
2023-08-24T12:56:34.658Z,32.51
2023-08-24T12:58:06.703Z,32.47
2023-08-24T12:59:38.975Z,32.42
2023-08-24T13:01:12.583Z,32.40
2023-08-24T13:02:44.358Z,32.42
2023-08-24T13:04:16.491Z,32.41
2023-08-24T13:05:49.029Z,32.38
2023-08-24T13:07:22.233Z,32.32
2023-08-24T13:08:54.207Z,32.20
2023-08-24T13:10:26.670Z,32.10
2023-08-24T13:11:58.637Z,31.99
2023-08-24T13:13:30.296Z,31.84
2023-08-24T13:15:03.603Z,31.55
2023-08-24T13:16:35.722Z,31.34
2023-08-24T13:18:07.534Z,31.24
2023-08-24T13:20:03.577Z,31.12
2023-08-24T13:25:55.584Z,30.53
2023-08-24T13:27:52.099Z,30.47
2023-08-24T13:30:02.439Z,30.47
2023-08-24T13:32:01.556Z,30.44
2023-08-24T13:34:00.110Z,30.46
2023-08-24T13:35:58.717Z,30.43
2023-08-24T13:40:16.536Z,30.21
2023-08-24T13:44:40.875Z,29.75
2023-08-24T13:46:47.752Z,29.64
2023-08-24T13:48:34.824Z,29.56
2023-08-24T13:50:48.542Z,29.50
2023-08-24T13:52:58.049Z,29.48
2023-08-24T13:56:58.867Z,29.59
2023-08-24T14:01:43.979Z,29.65
2023-08-24T14:03:45.218Z,29.64
2023-08-24T14:09:25.695Z,29.48
2023-08-24T14:13:37.830Z,29.49
2023-08-24T14:17:53.787Z,29.49
2023-08-24T14:19:31.924Z,29.44
2023-08-24T14:21:36.509Z,29.42
2023-08-24T14:23:33.977Z,29.39
2023-08-24T14:25:28.068Z,29.37
2023-08-24T14:27:17.205Z,29.28
2023-08-24T14:32:52.647Z,28.52
2023-08-24T14:34:24.452Z,28.30
2023-08-24T14:35:56.426Z,28.07
2023-08-24T14:37:28.271Z,27.91
2023-08-24T14:39:01.213Z,27.78
2023-08-24T14:40:32.952Z,27.63
2023-08-24T14:42:06.186Z,27.45
2023-08-24T14:43:38.417Z,27.34
2023-08-24T14:45:10.356Z,27.29
2023-08-24T14:46:42.915Z,27.31
2023-08-24T14:48:15.440Z,27.39
2023-08-24T14:49:51.244Z,27.42
2023-08-24T14:51:22.992Z,27.37
2023-08-24T14:52:54.705Z,27.37
2023-08-24T14:54:26.667Z,27.40
2023-08-24T14:55:59.188Z,27.39
2023-08-24T14:57:33.680Z,27.37
2023-08-24T14:59:06.086Z,27.35
2023-08-24T15:00:38.569Z,27.32
2023-08-24T15:02:10.647Z,27.33
2023-08-24T15:03:43.065Z,27.34
2023-08-24T15:05:14.874Z,27.35
2023-08-24T15:06:46.608Z,27.32
2023-08-24T15:08:18.744Z,27.18
2023-08-24T15:09:50.593Z,27.08
2023-08-24T15:11:22.414Z,26.99
2023-08-24T15:12:54.527Z,26.87
2023-08-24T15:14:29.062Z,26.84
2023-08-24T15:16:01.200Z,26.81
2023-08-24T15:17:33.240Z,26.80
2023-08-24T15:19:05.054Z,26.71
2023-08-24T15:20:36.787Z,26.65
2023-08-24T15:22:08.669Z,26.62
2023-08-24T15:23:40.445Z,26.56
2023-08-24T15:25:13.296Z,26.54
2023-08-24T15:26:45.409Z,26.53
2023-08-24T15:28:17.807Z,26.49
2023-08-24T15:29:49.993Z,26.47
2023-08-24T15:31:21.734Z,26.47
2023-08-24T15:32:53.568Z,26.47
2023-08-24T15:34:25.853Z,26.52
2023-08-24T15:35:58.979Z,26.53
2023-08-24T15:37:30.977Z,26.48
2023-08-24T15:39:02.679Z,26.43
2023-08-24T15:40:34.647Z,26.44
2023-08-24T15:42:06.780Z,26.47
2023-08-24T15:43:38.877Z,26.49
2023-08-24T15:45:11.364Z,26.54
2023-08-24T15:46:43.114Z,26.63
2023-08-24T15:48:15.338Z,26.74
2023-08-24T15:49:47.716Z,26.86
2023-08-24T15:51:19.398Z,26.96
2023-08-24T15:52:51.467Z,27.05
2023-08-24T15:54:25.783Z,27.12
2023-08-24T15:55:57.909Z,27.18
2023-08-24T15:57:29.613Z,27.22
2023-08-24T15:59:01.364Z,27.23
2023-08-24T16:00:33.026Z,27.23
2023-08-24T16:02:06.035Z,27.20
2023-08-24T16:03:37.756Z,27.19
2023-08-24T16:05:10.166Z,27.18
2023-08-24T16:06:42.068Z,27.15
2023-08-24T16:08:13.653Z,27.11
2023-08-24T16:09:46.183Z,27.10
2023-08-24T16:11:17.927Z,27.09
2023-08-24T16:12:50.114Z,27.07
2023-08-24T16:14:21.928Z,27.03
2023-08-24T16:15:54.048Z,27.00
2023-08-24T16:17:26.427Z,27.00
2023-08-24T16:18:58.065Z,26.97
2023-08-24T16:20:29.814Z,26.95
2023-08-24T16:22:01.997Z,26.92
2023-08-24T16:23:34.234Z,26.88
2023-08-24T16:25:06.269Z,26.84
2023-08-24T16:26:37.987Z,26.80
2023-08-24T16:28:09.639Z,26.71
2023-08-24T16:29:41.355Z,26.63
2023-08-24T16:31:13.490Z,26.59
2023-08-24T16:32:45.666Z,26.55
2023-08-24T16:34:17.382Z,26.48
2023-08-24T16:35:49.046Z,26.46
2023-08-24T16:37:20.744Z,26.41
2023-08-24T16:38:52.529Z,26.38
2023-08-24T16:40:24.524Z,26.33
2023-08-24T16:41:56.766Z,26.33
2023-08-24T16:43:30.407Z,26.29
2023-08-24T16:45:02.087Z,26.25
2023-08-24T16:46:33.912Z,26.21
2023-08-24T16:48:05.900Z,26.20
2023-08-24T16:49:37.778Z,26.21
2023-08-24T16:51:09.672Z,26.19
2023-08-24T16:52:41.412Z,26.16
2023-08-24T16:54:13.207Z,26.11
2023-08-24T16:55:45.317Z,26.08
2023-08-24T16:57:17.106Z,26.07
2023-08-24T16:58:49.080Z,26.05
2023-08-24T17:00:21.062Z,26.04
2023-08-24T17:01:53.079Z,26.08
2023-08-24T17:03:24.998Z,26.08
2023-08-24T17:04:56.653Z,26.08
2023-08-24T17:06:29.614Z,26.08
2023-08-24T17:08:04.796Z,26.00
2023-08-24T17:09:36.496Z,25.95
2023-08-24T17:11:08.340Z,25.83
2023-08-24T17:12:40.135Z,25.67
2023-08-24T17:14:14.913Z,25.57
2023-08-24T17:15:53.700Z,25.50
2023-08-24T17:17:26.054Z,25.43
2023-08-24T17:19:01.167Z,25.44
2023-08-24T17:20:37.519Z,25.48
2023-08-24T17:22:09.589Z,25.48
2023-08-24T17:23:41.573Z,25.44
2023-08-24T17:25:13.359Z,25.41
2023-08-24T17:26:45.110Z,25.34
2023-08-24T17:28:16.813Z,25.32
2023-08-24T17:29:50.595Z,25.27
2023-08-24T17:31:22.540Z,25.25
2023-08-24T17:32:56.605Z,25.21
2023-08-24T17:34:29.704Z,25.17
2023-08-24T17:36:03.016Z,25.16
2023-08-24T17:37:34.850Z,25.12
2023-08-24T17:39:09.356Z,25.10
2023-08-24T17:40:41.276Z,25.08
2023-08-24T17:42:13.314Z,25.08
2023-08-24T17:43:45.519Z,25.10
2023-08-24T17:45:20.238Z,25.10
2023-08-24T17:46:52.213Z,25.11
2023-08-24T17:48:24.345Z,25.09
2023-08-24T17:49:56.640Z,25.08
2023-08-24T17:51:31.599Z,25.05
2023-08-24T17:53:04.512Z,24.98
2023-08-24T17:54:36.610Z,24.92
2023-08-24T17:56:08.496Z,24.89
2023-08-24T17:57:40.172Z,24.87
2023-08-24T17:59:11.716Z,24.84
2023-08-24T18:00:43.315Z,24.82
2023-08-24T18:02:15.276Z,24.76
2023-08-24T18:03:47.067Z,24.71
2023-08-24T18:05:18.805Z,24.67
2023-08-24T18:06:50.793Z,24.68
2023-08-24T18:08:22.853Z,24.69
2023-08-24T18:09:54.514Z,24.71
2023-08-24T18:11:26.371Z,24.68
2023-08-24T18:12:59.546Z,24.66
2023-08-24T18:14:31.409Z,24.64
2023-08-24T18:16:03.510Z,24.65
2023-08-24T18:17:35.844Z,24.58
2023-08-24T18:19:07.868Z,24.50
2023-08-24T18:20:39.567Z,24.41
2023-08-24T18:22:11.567Z,24.38
2023-08-24T18:23:43.746Z,24.36
2023-08-24T18:26:47.164Z,24.42
2023-08-24T18:28:19.028Z,24.42
2023-08-24T18:29:50.740Z,24.43
2023-08-24T18:31:25.344Z,24.44
2023-08-24T18:32:57.378Z,24.43
2023-08-24T18:34:29.733Z,24.43
2023-08-24T18:36:01.475Z,24.43
2023-08-24T18:37:33.161Z,24.37
2023-08-24T18:39:05.064Z,24.27
2023-08-24T18:40:40.432Z,24.19
2023-08-24T18:42:12.607Z,24.16
2023-08-24T18:43:44.248Z,24.12
2023-08-24T18:45:15.991Z,24.08
2023-08-24T18:46:49.572Z,24.02
2023-08-24T18:48:21.382Z,23.96
2023-08-24T18:49:53.615Z,23.86
2023-08-24T18:51:26.954Z,23.77
2023-08-24T18:52:59.927Z,23.74
2023-08-24T18:54:31.818Z,23.78
2023-08-24T18:56:03.897Z,23.77
2023-08-24T18:57:35.695Z,23.75
2023-08-24T18:59:07.846Z,23.71
2023-08-24T19:00:39.865Z,23.67
2023-08-24T19:02:14.961Z,23.63
2023-08-24T19:03:47.132Z,23.67
2023-08-24T19:05:19.565Z,23.69
2023-08-24T19:06:54.559Z,23.73
2023-08-24T19:08:26.317Z,23.78
2023-08-24T19:09:59.710Z,23.85
2023-08-24T19:11:31.816Z,23.84
2023-08-24T19:13:04.724Z,23.83
2023-08-24T19:14:37.093Z,23.81
2023-08-24T19:16:10.757Z,23.79
2023-08-24T19:17:43.484Z,23.79
2023-08-24T19:19:15.899Z,23.83
2023-08-24T19:20:47.599Z,23.85
2023-08-24T19:22:19.656Z,23.87
2023-08-24T19:23:52.237Z,23.87
2023-08-24T19:25:23.971Z,23.87
2023-08-24T19:26:56.030Z,23.84
2023-08-24T19:28:28.162Z,23.84
2023-08-24T19:30:00.369Z,23.84
2023-08-24T19:31:36.177Z,23.85
2023-08-24T19:33:08.496Z,23.87
2023-08-24T19:34:40.248Z,23.86
2023-08-24T19:36:14.969Z,23.79
2023-08-24T19:37:47.774Z,23.72
2023-08-24T19:39:19.641Z,23.67
2023-08-24T19:40:51.442Z,23.64
2023-08-24T19:42:23.195Z,23.57
2023-08-24T19:43:55.154Z,23.57
2023-08-24T19:45:27.214Z,23.57
2023-08-24T19:46:58.979Z,23.61
2023-08-24T19:48:32.202Z,23.65
2023-08-24T19:50:04.238Z,23.63
2023-08-24T19:51:36.125Z,23.63
2023-08-24T19:53:08.268Z,23.57
2023-08-24T19:54:40.447Z,23.55
2023-08-24T19:56:12.652Z,23.53
2023-08-24T19:57:46.200Z,23.55
2023-08-24T19:59:18.330Z,23.58
2023-08-24T20:00:57.735Z,23.63
2023-08-24T20:02:29.576Z,23.69
2023-08-24T20:04:02.544Z,23.69
2023-08-24T20:05:37.880Z,23.70
2023-08-24T20:07:09.716Z,23.70
2023-08-24T20:08:41.430Z,23.66
2023-08-24T20:10:13.234Z,23.59
2023-08-24T20:11:44.917Z,23.62
2023-08-24T20:13:17.622Z,23.61
2023-08-24T20:14:49.475Z,23.56
2023-08-24T20:16:21.188Z,23.52
2023-08-24T20:17:53.257Z,23.46
2023-08-24T20:19:25.315Z,23.37
2023-08-24T20:20:57.621Z,23.34
2023-08-24T20:22:30.242Z,23.34
2023-08-24T20:24:02.816Z,23.34
2023-08-24T20:25:34.992Z,23.36
2023-08-24T20:27:07.108Z,23.36
2023-08-24T20:28:41.333Z,23.40
2023-08-24T20:30:13.465Z,23.42
2023-08-24T20:31:45.439Z,23.44
2023-08-24T20:33:17.502Z,23.45